sensor_id;sensor_type;location;lat;lon;timestamp;pressure;altitude;pressure_sealevel;temperature;humidity
69214;BME280;56325;47.030;18.518;2023-05-20T00:01:54;100843.59;;;14.59;96.93
69214;BME280;56325;47.030;18.518;2023-05-20T00:04:29;100839.88;;;14.77;97.10
69214;BME280;56325;47.030;18.518;2023-05-20T00:07:05;100831.81;;;14.88;95.73
69214;BME280;56325;47.030;18.518;2023-05-20T00:09:39;100820.44;;;14.86;95.97
69214;BME280;56325;47.030;18.518;2023-05-20T00:12:14;100816.81;;;14.95;94.99
69214;BME280;56325;47.030;18.518;2023-05-20T00:14:49;100813.78;;;15.07;94.56
69214;BME280;56325;47.030;18.518;2023-05-20T00:17:25;100828.88;;;15.06;94.08
69214;BME280;56325;47.030;18.518;2023-05-20T00:20:00;100824.28;;;15.03;93.63
69214;BME280;56325;47.030;18.518;2023-05-20T00:22:39;100814.72;;;14.90;94.75
69214;BME280;56325;47.030;18.518;2023-05-20T00:25:13;100819.34;;;15.07;94.18
69214;BME280;56325;47.030;18.518;2023-05-20T00:27:48;100812.94;;;15.01;94.19
69214;BME280;56325;47.030;18.518;2023-05-20T00:30:23;100822.88;;;15.08;93.53
69214;BME280;56325;47.030;18.518;2023-05-20T00:32:57;100822.00;;;15.02;94.17
69214;BME280;56325;47.030;18.518;2023-05-20T00:35:32;100822.50;;;15.15;93.63
69214;BME280;56325;47.030;18.518;2023-05-20T00:38:08;100822.97;;;15.14;93.51
69214;BME280;56325;47.030;18.518;2023-05-20T00:40:43;100820.69;;;15.27;92.35
69214;BME280;56325;47.030;18.518;2023-05-20T00:43:17;100821.06;;;15.20;92.44
69214;BME280;56325;47.030;18.518;2023-05-20T00:45:53;100832.44;;;15.22;91.94
69214;BME280;56325;47.030;18.518;2023-05-20T00:48:30;100828.69;;;15.10;93.15
69214;BME280;56325;47.030;18.518;2023-05-20T00:51:06;100822.34;;;14.80;94.35
69214;BME280;56325;47.030;18.518;2023-05-20T00:53:42;100826.72;;;14.72;95.00
69214;BME280;56325;47.030;18.518;2023-05-20T00:56:17;100825.00;;;14.74;95.38
69214;BME280;56325;47.030;18.518;2023-05-20T00:58:52;100826.53;;;14.75;95.40
69214;BME280;56325;47.030;18.518;2023-05-20T01:01:26;100825.19;;;14.71;95.46
69214;BME280;56325;47.030;18.518;2023-05-20T01:04:01;100826.53;;;14.75;95.46
69214;BME280;56325;47.030;18.518;2023-05-20T01:06:36;100828.53;;;14.75;95.07
69214;BME280;56325;47.030;18.518;2023-05-20T01:09:13;100824.81;;;14.78;94.84
69214;BME280;56325;47.030;18.518;2023-05-20T01:11:52;100822.91;;;14.84;94.59
69214;BME280;56325;47.030;18.518;2023-05-20T01:14:33;100817.84;;;14.83;94.83
69214;BME280;56325;47.030;18.518;2023-05-20T01:17:10;100805.53;;;14.84;94.70
69214;BME280;56325;47.030;18.518;2023-05-20T01:19:49;100805.34;;;14.87;94.86
69214;BME280;56325;47.030;18.518;2023-05-20T01:22:28;100808.00;;;14.67;96.05
69214;BME280;56325;47.030;18.518;2023-05-20T01:25:03;100804.09;;;14.73;95.78
69214;BME280;56325;47.030;18.518;2023-05-20T01:27:38;100810.00;;;14.66;96.12
69214;BME280;56325;47.030;18.518;2023-05-20T01:30:12;100808.19;;;14.78;96.10
69214;BME280;56325;47.030;18.518;2023-05-20T01:32:51;100814.47;;;15.02;94.73
69214;BME280;56325;47.030;18.518;2023-05-20T01:35:51;100814.28;;;15.06;94.06
69214;BME280;56325;47.030;18.518;2023-05-20T01:39:10;100809.13;;;15.14;93.73
69214;BME280;56325;47.030;18.518;2023-05-20T01:42:09;100814.78;;;15.34;92.36
69214;BME280;56325;47.030;18.518;2023-05-20T01:45:09;100813.72;;;15.17;92.44
69214;BME280;56325;47.030;18.518;2023-05-20T01:59:37;100812.25;;;15.06;91.68
69214;BME280;56325;47.030;18.518;2023-05-20T05:14:13;100853.63;;;17.15;87.66
69214;BME280;56325;47.030;18.518;2023-05-20T05:16:48;100853.63;;;17.15;87.66
69214;BME280;56325;47.030;18.518;2023-05-20T05:19:25;100859.47;;;16.56;89.90
69214;BME280;56325;47.030;18.518;2023-05-20T05:22:00;100865.09;;;16.61;90.13
69214;BME280;56325;47.030;18.518;2023-05-20T05:24:35;100875.28;;;16.50;90.37
69214;BME280;56325;47.030;18.518;2023-05-20T05:27:10;100878.13;;;16.55;90.32
69214;BME280;56325;47.030;18.518;2023-05-20T05:29:47;100890.19;;;16.67;90.54
69214;BME280;56325;47.030;18.518;2023-05-20T05:32:22;100894.13;;;16.60;89.57
69214;BME280;56325;47.030;18.518;2023-05-20T05:34:57;100898.09;;;16.74;89.80
69214;BME280;56325;47.030;18.518;2023-05-20T05:37:32;100890.19;;;16.87;88.68
69214;BME280;56325;47.030;18.518;2023-05-20T05:40:07;100894.37;;;16.97;87.99
69214;BME280;56325;47.030;18.518;2023-05-20T05:42:42;100892.84;;;16.96;87.48
69214;BME280;56325;47.030;18.518;2023-05-20T05:45:18;100895.63;;;16.96;87.30
69214;BME280;56325;47.030;18.518;2023-05-20T05:47:53;100884.22;;;16.94;86.31
69214;BME280;56325;47.030;18.518;2023-05-20T05:50:28;100882.00;;;16.78;86.73
69214;BME280;56325;47.030;18.518;2023-05-20T05:53:03;100875.88;;;16.94;87.08
69214;BME280;56325;47.030;18.518;2023-05-20T05:55:39;100877.47;;;17.01;86.33
69214;BME280;56325;47.030;18.518;2023-05-20T05:58:14;100871.59;;;17.45;89.97
69214;BME280;56325;47.030;18.518;2023-05-20T06:02:51;100868.53;;;18.38;82.69
69214;BME280;56325;47.030;18.518;2023-05-20T06:05:27;100868.53;;;18.38;82.69
69214;BME280;56325;47.030;18.518;2023-05-20T06:08:02;100878.00;;;17.77;84.87
69214;BME280;56325;47.030;18.518;2023-05-20T06:10:37;100880.22;;;17.73;85.07
69214;BME280;56325;47.030;18.518;2023-05-20T06:45:31;100858.69;;;19.07;81.97
69214;BME280;56325;47.030;18.518;2023-05-20T06:48:07;100858.69;;;19.07;81.97
69214;BME280;56325;47.030;18.518;2023-05-20T06:50:43;100858.69;;;18.96;83.42
69214;BME280;56325;47.030;18.518;2023-05-20T06:53:18;100863.50;;;18.95;82.83
69214;BME280;56325;47.030;18.518;2023-05-20T06:55:53;100864.28;;;19.02;83.06
69214;BME280;56325;47.030;18.518;2023-05-20T06:58:29;100853.87;;;19.08;81.71
69214;BME280;56325;47.030;18.518;2023-05-20T07:01:04;100850.34;;;19.13;81.04
69214;BME280;56325;47.030;18.518;2023-05-20T07:03:39;100856.94;;;19.10;80.95
69214;BME280;56325;47.030;18.518;2023-05-20T07:06:15;100847.06;;;19.03;81.32
69214;BME280;56325;47.030;18.518;2023-05-20T07:08:50;100861.03;;;19.31;82.14
69214;BME280;56325;47.030;18.518;2023-05-20T07:11:25;100858.75;;;19.35;81.25
69214;BME280;56325;47.030;18.518;2023-05-20T07:13:59;100857.50;;;19.47;80.90
69214;BME280;56325;47.030;18.518;2023-05-20T07:16:36;100843.53;;;19.25;80.44
69214;BME280;56325;47.030;18.518;2023-05-20T07:19:11;100856.25;;;19.48;80.83
69214;BME280;56325;47.030;18.518;2023-05-20T07:21:45;100846.66;;;19.66;81.29
69214;BME280;56325;47.030;18.518;2023-05-20T07:24:22;100856.28;;;19.76;80.56
69214;BME280;56325;47.030;18.518;2023-05-20T07:26:56;100846.91;;;19.79;80.51
69214;BME280;56325;47.030;18.518;2023-05-20T07:29:31;100846.34;;;19.97;79.45
69214;BME280;56325;47.030;18.518;2023-05-20T07:32:08;100842.03;;;20.08;79.54
69214;BME280;56325;47.030;18.518;2023-05-20T07:34:43;100850.13;;;20.17;79.74
69214;BME280;56325;47.030;18.518;2023-05-20T07:37:17;100838.41;;;20.29;79.41
69214;BME280;56325;47.030;18.518;2023-05-20T07:39:52;100843.25;;;20.23;78.80
69214;BME280;56325;47.030;18.518;2023-05-20T07:42:27;100844.00;;;20.29;78.92
69214;BME280;56325;47.030;18.518;2023-05-20T07:45:02;100843.75;;;20.27;78.50
69214;BME280;56325;47.030;18.518;2023-05-20T07:47:37;100839.94;;;20.42;78.88
69214;BME280;56325;47.030;18.518;2023-05-20T07:50:13;100845.00;;;20.38;78.17
69214;BME280;56325;47.030;18.518;2023-05-20T07:52:49;100840.69;;;20.48;79.40
69214;BME280;56325;47.030;18.518;2023-05-20T07:55:29;100837.06;;;20.64;79.34
69214;BME280;56325;47.030;18.518;2023-05-20T07:58:04;100833.53;;;20.58;78.25
69214;BME280;56325;47.030;18.518;2023-05-20T08:00:39;100833.13;;;20.84;78.57
69214;BME280;56325;47.030;18.518;2023-05-20T08:03:16;100831.09;;;20.84;76.77
69214;BME280;56325;47.030;18.518;2023-05-20T08:05:52;100827.22;;;20.99;76.16
69214;BME280;56325;47.030;18.518;2023-05-20T08:08:27;100822.31;;;21.10;75.96
69214;BME280;56325;47.030;18.518;2023-05-20T08:11:03;100827.13;;;20.74;75.62
69214;BME280;56325;47.030;18.518;2023-05-20T08:13:38;100829.97;;;21.04;75.97
69214;BME280;56325;47.030;18.518;2023-05-20T08:16:12;100823.56;;;21.15;76.22
69214;BME280;56325;47.030;18.518;2023-05-20T08:18:50;100821.06;;;21.47;75.20
69214;BME280;56325;47.030;18.518;2023-05-20T08:21:24;100820.09;;;21.44;74.23
69214;BME280;56325;47.030;18.518;2023-05-20T08:24:00;100809.84;;;21.52;76.68
69214;BME280;56325;47.030;18.518;2023-05-20T08:26:35;100810.56;;;21.58;75.58
69214;BME280;56325;47.030;18.518;2023-05-20T08:29:10;100805.50;;;21.81;75.89
69214;BME280;56325;47.030;18.518;2023-05-20T08:31:44;100810.22;;;21.92;74.64
69214;BME280;56325;47.030;18.518;2023-05-20T08:34:21;100805.63;;;21.95;74.21
69214;BME280;56325;47.030;18.518;2023-05-20T08:37:10;100804.56;;;21.98;74.54
69214;BME280;56325;47.030;18.518;2023-05-20T10:49:05;100694.66;;;24.83;55.58
69214;BME280;56325;47.030;18.518;2023-05-20T10:51:51;100694.66;;;24.83;55.58
69214;BME280;56325;47.030;18.518;2023-05-20T10:54:26;100707.38;;;24.16;56.67
69214;BME280;56325;47.030;18.518;2023-05-20T10:57:05;100701.72;;;24.43;55.49
69214;BME280;56325;47.030;18.518;2023-05-20T10:59:40;100718.41;;;24.14;53.86
69214;BME280;56325;47.030;18.518;2023-05-20T11:02:16;100715.47;;;24.20;55.86
69214;BME280;56325;47.030;18.518;2023-05-20T11:04:52;100712.03;;;24.61;57.49
69214;BME280;56325;47.030;18.518;2023-05-20T11:07:30;100706.44;;;24.82;57.20
69214;BME280;56325;47.030;18.518;2023-05-20T11:10:07;100715.37;;;24.94;57.22
69214;BME280;56325;47.030;18.518;2023-05-20T11:12:43;100707.19;;;24.82;56.62
69214;BME280;56325;47.030;18.518;2023-05-20T11:15:18;100702.19;;;24.89;56.20
69214;BME280;56325;47.030;18.518;2023-05-20T11:17:53;100701.94;;;25.21;58.16
69214;BME280;56325;47.030;18.518;2023-05-20T11:20:30;100697.25;;;25.23;55.83
69214;BME280;56325;47.030;18.518;2023-05-20T11:23:13;100689.91;;;25.20;54.24
69214;BME280;56325;47.030;18.518;2023-05-20T11:25:48;100691.97;;;25.20;55.03
69214;BME280;56325;47.030;18.518;2023-05-20T11:28:26;100685.00;;;25.41;55.07
69214;BME280;56325;47.030;18.518;2023-05-20T11:31:04;100687.53;;;25.53;55.58
69214;BME280;56325;47.030;18.518;2023-05-20T11:33:40;100684.72;;;25.53;54.05
69214;BME280;56325;47.030;18.518;2023-05-20T11:36:16;100686.22;;;25.54;53.02
69214;BME280;56325;47.030;18.518;2023-05-20T11:39:00;100685.53;;;25.61;53.18
69214;BME280;56325;47.030;18.518;2023-05-20T11:41:37;100671.41;;;25.82;54.96
69214;BME280;56325;47.030;18.518;2023-05-20T11:44:12;100674.22;;;25.82;53.09
69214;BME280;56325;47.030;18.518;2023-05-20T11:46:47;100663.50;;;25.80;51.55
69214;BME280;56325;47.030;18.518;2023-05-20T11:49:22;100671.16;;;25.72;52.79
69214;BME280;56325;47.030;18.518;2023-05-20T11:51:58;100665.28;;;25.98;53.55
69214;BME280;56325;47.030;18.518;2023-05-20T11:54:34;100660.56;;;25.93;51.30
69214;BME280;56325;47.030;18.518;2023-05-20T11:57:11;100666.19;;;25.93;50.43
69214;BME280;56325;47.030;18.518;2023-05-20T11:59:46;100664.53;;;26.05;48.43
69214;BME280;56325;47.030;18.518;2023-05-20T12:02:20;100668.72;;;26.20;50.43
69214;BME280;56325;47.030;18.518;2023-05-20T12:04:55;100659.78;;;26.36;51.02
69214;BME280;56325;47.030;18.518;2023-05-20T12:07:31;100651.81;;;26.20;46.71
69214;BME280;56325;47.030;18.518;2023-05-20T12:10:09;100664.34;;;26.03;46.98
69214;BME280;56325;47.030;18.518;2023-05-20T12:12:45;100651.34;;;26.44;50.31
69214;BME280;56325;47.030;18.518;2023-05-20T12:15:20;100649.88;;;26.58;47.52
69214;BME280;56325;47.030;18.518;2023-05-20T12:17:55;100655.69;;;26.45;46.89
69214;BME280;56325;47.030;18.518;2023-05-20T12:20:30;100656.66;;;26.55;48.11
69214;BME280;56325;47.030;18.518;2023-05-20T12:23:08;100654.41;;;26.61;45.75
69214;BME280;56325;47.030;18.518;2023-05-20T12:25:43;100648.00;;;26.61;46.45
69214;BME280;56325;47.030;18.518;2023-05-20T12:28:19;100650.84;;;26.68;46.64
69214;BME280;56325;47.030;18.518;2023-05-20T12:30:53;100659.69;;;26.80;46.65
69214;BME280;56325;47.030;18.518;2023-05-20T12:33:28;100643.87;;;26.92;44.84
69214;BME280;56325;47.030;18.518;2023-05-20T12:36:03;100640.87;;;26.67;44.03
69214;BME280;56325;47.030;18.518;2023-05-20T12:38:39;100630.72;;;26.72;44.54
69214;BME280;56325;47.030;18.518;2023-05-20T12:41:14;100631.84;;;26.76;47.46
69214;BME280;56325;47.030;18.518;2023-05-20T12:43:48;100635.44;;;26.85;45.82
69214;BME280;56325;47.030;18.518;2023-05-20T12:46:23;100635.97;;;26.91;46.05
69214;BME280;56325;47.030;18.518;2023-05-20T12:48:57;100631.28;;;26.93;44.30
69214;BME280;56325;47.030;18.518;2023-05-20T12:51:32;100619.06;;;27.06;46.45
69214;BME280;56325;47.030;18.518;2023-05-20T12:54:08;100624.72;;;26.98;42.07
69214;BME280;56325;47.030;18.518;2023-05-20T12:56:43;100617.56;;;27.05;44.04
69214;BME280;56325;47.030;18.518;2023-05-20T12:59:19;100612.28;;;27.09;43.67
69214;BME280;56325;47.030;18.518;2023-05-20T13:01:54;100614.50;;;27.41;46.48
69214;BME280;56325;47.030;18.518;2023-05-20T13:04:28;100615.22;;;27.57;45.26
69214;BME280;56325;47.030;18.518;2023-05-20T13:07:06;100607.31;;;27.48;43.59
69214;BME280;56325;47.030;18.518;2023-05-20T13:09:43;100603.81;;;27.17;42.34
69214;BME280;56325;47.030;18.518;2023-05-20T13:12:18;100597.78;;;26.90;42.09
69214;BME280;56325;47.030;18.518;2023-05-20T13:14:52;100589.72;;;27.09;41.53
69214;BME280;56325;47.030;18.518;2023-05-20T13:17:27;100597.03;;;27.27;42.40
69214;BME280;56325;47.030;18.518;2023-05-20T13:20:02;100593.03;;;27.46;44.94
69214;BME280;56325;47.030;18.518;2023-05-20T13:22:39;100599.03;;;27.65;43.80
69214;BME280;56325;47.030;18.518;2023-05-20T13:25:16;100590.72;;;27.67;42.91
69214;BME280;56325;47.030;18.518;2023-05-20T13:27:50;100583.59;;;27.51;43.07
69214;BME280;56325;47.030;18.518;2023-05-20T13:30:25;100582.06;;;27.65;44.15
69214;BME280;56325;47.030;18.518;2023-05-20T13:33:00;100568.50;;;28.03;42.28
69214;BME280;56325;47.030;18.518;2023-05-20T13:35:35;100573.69;;;27.82;43.69
69214;BME280;56325;47.030;18.518;2023-05-20T13:38:10;100578.03;;;27.20;40.90
69214;BME280;56325;47.030;18.518;2023-05-20T13:40:46;100579.91;;;26.87;43.99
69214;BME280;56325;47.030;18.518;2023-05-20T13:43:21;100574.88;;;26.70;41.29
69214;BME280;56325;47.030;18.518;2023-05-20T13:45:55;100578.06;;;26.67;40.79
69214;BME280;56325;47.030;18.518;2023-05-20T13:48:30;100571.25;;;27.16;43.63
69214;BME280;56325;47.030;18.518;2023-05-20T13:51:05;100572.37;;;27.20;42.36
69214;BME280;56325;47.030;18.518;2023-05-20T13:53:39;100557.25;;;27.40;42.41
69214;BME280;56325;47.030;18.518;2023-05-20T13:56:15;100548.59;;;27.86;40.44
69214;BME280;56325;47.030;18.518;2023-05-20T13:58:50;100554.84;;;28.17;40.82
69214;BME280;56325;47.030;18.518;2023-05-20T14:03:16;100545.97;;;28.70;38.95
69214;BME280;56325;47.030;18.518;2023-05-20T14:05:51;100545.97;;;28.70;38.95
69214;BME280;56325;47.030;18.518;2023-05-20T14:08:26;100551.38;;;27.61;40.49
69214;BME280;56325;47.030;18.518;2023-05-20T14:11:01;100541.28;;;27.83;43.14
69214;BME280;56325;47.030;18.518;2023-05-20T14:13:35;100526.22;;;27.81;41.68
69214;BME280;56325;47.030;18.518;2023-05-20T14:16:10;100525.91;;;28.34;42.13
69214;BME280;56325;47.030;18.518;2023-05-20T14:18:46;100531.56;;;28.34;41.46
69214;BME280;56325;47.030;18.518;2023-05-20T14:21:20;100526.22;;;28.13;40.69
69214;BME280;56325;47.030;18.518;2023-05-20T14:23:56;100521.47;;;28.16;39.75
69214;BME280;56325;47.030;18.518;2023-05-20T14:26:31;100532.84;;;27.75;39.89
69214;BME280;56325;47.030;18.518;2023-05-20T14:29:06;100526.72;;;27.62;39.97
69214;BME280;56325;47.030;18.518;2023-05-20T14:31:42;100524.66;;;27.87;41.50
69214;BME280;56325;47.030;18.518;2023-05-20T14:34:18;100522.81;;;28.15;40.41
69214;BME280;56325;47.030;18.518;2023-05-20T14:36:53;100527.28;;;27.53;40.73
69214;BME280;56325;47.030;18.518;2023-05-20T14:39:29;100527.19;;;27.20;39.75
69214;BME280;56325;47.030;18.518;2023-05-20T14:42:04;100515.19;;;26.89;41.66
69214;BME280;56325;47.030;18.518;2023-05-20T14:44:38;100522.22;;;26.65;42.34
69214;BME280;56325;47.030;18.518;2023-05-20T14:47:13;100520.28;;;27.06;41.31
69214;BME280;56325;47.030;18.518;2023-05-20T14:49:52;100512.66;;;27.39;41.11
69214;BME280;56325;47.030;18.518;2023-05-20T14:52:27;100504.94;;;27.32;40.68
69214;BME280;56325;47.030;18.518;2023-05-20T14:55:01;100507.13;;;27.56;41.68
69214;BME280;56325;47.030;18.518;2023-05-20T14:57:36;100505.06;;;27.49;40.77
69214;BME280;56325;47.030;18.518;2023-05-20T15:00:12;100494.94;;;27.38;40.56
69214;BME280;56325;47.030;18.518;2023-05-20T15:02:47;100490.06;;;27.79;42.26
69214;BME280;56325;47.030;18.518;2023-05-20T15:05:23;100502.25;;;27.49;41.60
69214;BME280;56325;47.030;18.518;2023-05-20T15:07:58;100493.16;;;27.66;40.95
69214;BME280;56325;47.030;18.518;2023-05-20T15:10:32;100500.97;;;27.42;40.12
69214;BME280;56325;47.030;18.518;2023-05-20T15:13:07;100495.19;;;27.25;41.64
69214;BME280;56325;47.030;18.518;2023-05-20T15:15:41;100487.03;;;26.82;42.84
69214;BME280;56325;47.030;18.518;2023-05-20T15:18:16;100486.41;;;26.98;42.12
69214;BME280;56325;47.030;18.518;2023-05-20T15:20:52;100485.09;;;27.07;42.93
69214;BME280;56325;47.030;18.518;2023-05-20T15:23:27;100482.53;;;26.71;44.80
69214;BME280;56325;47.030;18.518;2023-05-20T15:26:01;100487.19;;;26.15;45.48
69214;BME280;56325;47.030;18.518;2023-05-20T15:28:36;100480.97;;;25.78;44.88
69214;BME280;56325;47.030;18.518;2023-05-20T15:31:11;100481.97;;;25.53;45.93
69214;BME280;56325;47.030;18.518;2023-05-20T15:33:46;100474.78;;;25.95;46.14
69214;BME280;56325;47.030;18.518;2023-05-20T15:36:22;100482.62;;;25.66;46.73
69214;BME280;56325;47.030;18.518;2023-05-20T15:38:57;100479.47;;;26.00;47.00
69214;BME280;56325;47.030;18.518;2023-05-20T15:41:31;100481.75;;;25.94;47.96
69214;BME280;56325;47.030;18.518;2023-05-20T15:44:06;100482.31;;;25.93;48.84
69214;BME280;56325;47.030;18.518;2023-05-20T15:46:40;100469.38;;;26.35;47.01
69214;BME280;56325;47.030;18.518;2023-05-20T15:49:16;100470.87;;;26.59;43.52
69214;BME280;56325;47.030;18.518;2023-05-20T15:51:52;100469.19;;;26.64;43.72
69214;BME280;56325;47.030;18.518;2023-05-20T15:54:35;100467.50;;;26.53;42.33
69214;BME280;56325;47.030;18.518;2023-05-20T15:57:10;100457.53;;;26.60;43.47
69214;BME280;56325;47.030;18.518;2023-05-20T15:59:44;100461.84;;;26.30;46.10
69214;BME280;56325;47.030;18.518;2023-05-20T16:02:19;100456.59;;;25.96;46.24
69214;BME280;56325;47.030;18.518;2023-05-20T16:04:54;100459.94;;;26.18;46.48
69214;BME280;56325;47.030;18.518;2023-05-20T16:07:30;100453.94;;;26.29;47.24
69214;BME280;56325;47.030;18.518;2023-05-20T16:10:06;100452.66;;;26.53;46.60
69214;BME280;56325;47.030;18.518;2023-05-20T16:12:40;100451.16;;;26.44;46.01
69214;BME280;56325;47.030;18.518;2023-05-20T16:15:15;100451.13;;;26.59;46.20
69214;BME280;56325;47.030;18.518;2023-05-20T16:17:49;100454.72;;;26.44;46.41
69214;BME280;56325;47.030;18.518;2023-05-20T16:20:24;100459.62;;;26.36;45.69
69214;BME280;56325;47.030;18.518;2023-05-20T16:23:00;100463.00;;;26.50;45.69
69214;BME280;56325;47.030;18.518;2023-05-20T16:25:34;100456.38;;;26.25;45.15
69214;BME280;56325;47.030;18.518;2023-05-20T16:28:09;100450.41;;;26.36;45.98
69214;BME280;56325;47.030;18.518;2023-05-20T16:30:44;100456.94;;;26.31;45.92
69214;BME280;56325;47.030;18.518;2023-05-20T16:33:18;100454.69;;;26.14;46.65
69214;BME280;56325;47.030;18.518;2023-05-20T16:35:53;100458.81;;;26.05;47.34
69214;BME280;56325;47.030;18.518;2023-05-20T16:38:29;100461.06;;;26.07;48.33
69214;BME280;56325;47.030;18.518;2023-05-20T16:41:04;100466.91;;;25.86;47.74
69214;BME280;56325;47.030;18.518;2023-05-20T16:43:39;100458.72;;;25.60;47.69
69214;BME280;56325;47.030;18.518;2023-05-20T16:46:13;100466.03;;;25.55;47.29
69214;BME280;56325;47.030;18.518;2023-05-20T16:48:48;100463.94;;;25.48;48.33
69214;BME280;56325;47.030;18.518;2023-05-20T16:51:22;100473.72;;;25.55;48.02
69214;BME280;56325;47.030;18.518;2023-05-20T16:53:59;100465.91;;;25.68;48.89
69214;BME280;56325;47.030;18.518;2023-05-20T16:56:34;100470.38;;;25.64;49.08
69214;BME280;56325;47.030;18.518;2023-05-20T16:59:09;100474.00;;;25.72;48.89
69214;BME280;56325;47.030;18.518;2023-05-20T17:01:46;100468.69;;;25.61;48.70
69214;BME280;56325;47.030;18.518;2023-05-20T17:04:21;100461.72;;;25.54;48.23
69214;BME280;56325;47.030;18.518;2023-05-20T17:06:56;100463.78;;;25.61;49.14
69214;BME280;56325;47.030;18.518;2023-05-20T17:09:31;100463.38;;;25.49;48.96
69214;BME280;56325;47.030;18.518;2023-05-20T17:12:06;100469.38;;;25.46;48.84
69214;BME280;56325;47.030;18.518;2023-05-20T17:14:41;100468.00;;;25.32;51.51
69214;BME280;56325;47.030;18.518;2023-05-20T17:17:15;100466.66;;;25.25;51.89
69214;BME280;56325;47.030;18.518;2023-05-20T17:19:50;100469.09;;;25.21;52.95
69214;BME280;56325;47.030;18.518;2023-05-20T17:22:24;100473.16;;;25.05;51.81
69214;BME280;56325;47.030;18.518;2023-05-20T17:25:00;100475.09;;;24.89;51.39
69214;BME280;56325;47.030;18.518;2023-05-20T17:27:35;100470.69;;;24.73;52.06
69214;BME280;56325;47.030;18.518;2023-05-20T17:30:10;100471.81;;;24.49;52.18
69214;BME280;56325;47.030;18.518;2023-05-20T17:32:45;100473.47;;;24.44;52.63
69214;BME280;56325;47.030;18.518;2023-05-20T17:35:19;100462.94;;;24.37;52.92
69214;BME280;56325;47.030;18.518;2023-05-20T17:37:57;100469.94;;;24.23;53.63
69214;BME280;56325;47.030;18.518;2023-05-20T17:40:33;100475.53;;;24.23;53.83
69214;BME280;56325;47.030;18.518;2023-05-20T17:43:08;100475.69;;;24.17;53.36
69214;BME280;56325;47.030;18.518;2023-05-20T17:45:43;100475.34;;;24.00;53.76
69214;BME280;56325;47.030;18.518;2023-05-20T17:48:17;100473.25;;;23.80;54.33
69214;BME280;56325;47.030;18.518;2023-05-20T17:50:52;100481.47;;;23.78;54.38
69214;BME280;56325;47.030;18.518;2023-05-20T17:53:27;100476.97;;;23.62;54.42
69214;BME280;56325;47.030;18.518;2023-05-20T17:56:03;100482.81;;;23.64;54.77
69214;BME280;56325;47.030;18.518;2023-05-20T17:58:38;100483.69;;;23.59;54.38
69214;BME280;56325;47.030;18.518;2023-05-20T18:01:13;100488.53;;;23.45;55.55
69214;BME280;56325;47.030;18.518;2023-05-20T18:03:48;100486.53;;;23.32;56.54
69214;BME280;56325;47.030;18.518;2023-05-20T18:06:23;100490.44;;;23.16;57.42
69214;BME280;56325;47.030;18.518;2023-05-20T18:08:58;100485.47;;;23.09;57.78
69214;BME280;56325;47.030;18.518;2023-05-20T18:11:34;100486.44;;;22.98;58.36
69214;BME280;56325;47.030;18.518;2023-05-20T18:14:10;100493.25;;;22.89;59.19
69214;BME280;56325;47.030;18.518;2023-05-20T18:16:44;100498.00;;;22.81;60.14
69214;BME280;56325;47.030;18.518;2023-05-20T18:19:19;100486.09;;;22.75;60.67
69214;BME280;56325;47.030;18.518;2023-05-20T18:21:54;100482.94;;;22.66;60.84
69214;BME280;56325;47.030;18.518;2023-05-20T18:24:29;100485.84;;;22.60;61.26
69214;BME280;56325;47.030;18.518;2023-05-20T18:27:05;100497.38;;;22.43;61.82
69214;BME280;56325;47.030;18.518;2023-05-20T18:29:40;100488.22;;;22.43;61.32
69214;BME280;56325;47.030;18.518;2023-05-20T18:32:14;100490.59;;;22.39;61.56
69214;BME280;56325;47.030;18.518;2023-05-20T18:34:49;100496.09;;;22.44;61.53
69214;BME280;56325;47.030;18.518;2023-05-20T18:37:26;100494.91;;;22.40;61.41
69214;BME280;56325;47.030;18.518;2023-05-20T18:40:01;100503.62;;;22.36;61.57
69214;BME280;56325;47.030;18.518;2023-05-20T18:42:37;100501.31;;;22.21;62.47
69214;BME280;56325;47.030;18.518;2023-05-20T18:45:12;100505.16;;;22.18;62.71
69214;BME280;56325;47.030;18.518;2023-05-20T18:47:46;100499.28;;;22.03;63.34
69214;BME280;56325;47.030;18.518;2023-05-20T18:50:21;100509.25;;;21.99;63.64
69214;BME280;56325;47.030;18.518;2023-05-20T18:52:55;100509.50;;;21.82;64.19
69214;BME280;56325;47.030;18.518;2023-05-20T18:55:30;100514.03;;;21.85;64.00
69214;BME280;56325;47.030;18.518;2023-05-20T18:58:06;100516.78;;;21.72;64.51
69214;BME280;56325;47.030;18.518;2023-05-20T19:00:41;100509.06;;;21.78;64.41
69214;BME280;56325;47.030;18.518;2023-05-20T19:03:15;100513.09;;;21.64;65.14
69214;BME280;56325;47.030;18.518;2023-05-20T19:05:50;100509.97;;;21.67;65.09
69214;BME280;56325;47.030;18.518;2023-05-20T19:08:25;100513.84;;;21.64;65.20
69214;BME280;56325;47.030;18.518;2023-05-20T19:11:00;100512.41;;;21.57;65.21
69214;BME280;56325;47.030;18.518;2023-05-20T19:13:36;100526.78;;;21.48;65.78
69214;BME280;56325;47.030;18.518;2023-05-20T19:16:10;100524.19;;;21.50;65.42
69214;BME280;56325;47.030;18.518;2023-05-20T19:18:45;100530.94;;;21.61;65.50
69214;BME280;56325;47.030;18.518;2023-05-20T19:21:19;100533.28;;;21.56;65.63
69214;BME280;56325;47.030;18.518;2023-05-20T19:23:54;100534.47;;;21.42;66.18
69214;BME280;56325;47.030;18.518;2023-05-20T19:26:29;100529.63;;;21.43;66.26
69214;BME280;56325;47.030;18.518;2023-05-20T19:29:06;100526.16;;;21.37;65.98
69214;BME280;56325;47.030;18.518;2023-05-20T19:31:41;100531.38;;;21.46;71.98
69214;BME280;56325;47.030;18.518;2023-05-20T19:34:16;100522.38;;;21.72;73.01